KPNA

Details ICAO KPNA
Name RALPH WENZ FLD
Region United States
Timezone America/Denver (UTC-6.0)
Plans Departing 9
Arriving 12
Stats Elevation 7,086 ft / 2,160 m (AMSL)
Location 42.797390° -109.811036°
Runways 1
Magnetic Variation 10.830° E
Sunrise 2018-05-25 11:49:11 UTC / 2018-05-25 05:49:11 Local
Sunset 2018-05-26 02:46:07 UTC / 2018-05-25 20:46:07 Local
Advertisement - Login to hide

Runways

ID Width Length Bearing (true) Bearing (mag) Surface Threshold Offset Overrun Length
11 98 ft / 30 m 8,878 ft / 2,706 m 123.69° 112.86° Asphalt 0 ft / 0 m 0 ft / 0 m
29 98 ft / 30 m 8,878 ft / 2,706 m 303.71° 292.88° Asphalt 0 ft / 0 m 0 ft / 0 m

Map

Weather


0- 5 10 15 20 25 30 35+ Temperature / ° C

Clouds and Precipitation
Forecast for 2018-05-25 12:00 UTC. Updated 6 minutes ago

Ground ~20,000 ft ~40,000 ft Winds

METAR

KPNA 251115Z AUTO 28010KT 10SM CLR 02/02 A3023 RMK AO2

TAF

TAF KPNA 250526Z 2506/2606 29008KT P6SM SKC FM251700 13006KT P6SM SCT100 FM260200 VRB04KT P6SM SKC AMD LTD TO CLD VIS AND WIND

Frequencies

Recorded 118.32 MHz AWOS 3
Unicom 122.80 MHz CTAF/UNICOM
Warning: Do not use this data for real-world aviation or navigation. No guarantee of current accuracy is given.